sensor_id;sensor_type;location;lat;lon;timestamp;P1;durP1;ratioP1;P2;durP2;ratioP2
5539;SDS011;2792;52.452;9.752;2023-02-11T00:01:21;47.43;;;25.73;;
5539;SDS011;2792;52.452;9.752;2023-02-11T00:03:49;46.47;;;26.53;;
5539;SDS011;2792;52.452;9.752;2023-02-11T00:06:16;48.13;;;26.70;;
5539;SDS011;2792;52.452;9.752;2023-02-11T00:08:44;46.93;;;25.70;;
5539;SDS011;2792;52.452;9.752;2023-02-11T00:11:11;45.93;;;25.93;;
5539;SDS011;2792;52.452;9.752;2023-02-11T00:13:38;48.43;;;25.90;;
5539;SDS011;2792;52.452;9.752;2023-02-11T00:16:05;43.43;;;24.77;;
5539;SDS011;2792;52.452;9.752;2023-02-11T00:18:33;45.13;;;25.80;;
5539;SDS011;2792;52.452;9.752;2023-02-11T00:21:04;44.33;;;25.20;;
5539;SDS011;2792;52.452;9.752;2023-02-11T00:23:31;41.23;;;25.27;;
5539;SDS011;2792;52.452;9.752;2023-02-11T00:25:59;45.03;;;26.63;;
5539;SDS011;2792;52.452;9.752;2023-02-11T00:28:25;46.93;;;27.10;;
5539;SDS011;2792;52.452;9.752;2023-02-11T00:30:55;47.90;;;27.07;;
5539;SDS011;2792;52.452;9.752;2023-02-11T00:33:22;54.00;;;27.47;;
5539;SDS011;2792;52.452;9.752;2023-02-11T00:35:49;47.93;;;28.40;;
5539;SDS011;2792;52.452;9.752;2023-02-11T00:38:15;45.73;;;25.50;;
5539;SDS011;2792;52.452;9.752;2023-02-11T00:40:42;58.13;;;27.40;;
5539;SDS011;2792;52.452;9.752;2023-02-11T00:43:10;53.63;;;27.60;;
5539;SDS011;2792;52.452;9.752;2023-02-11T00:45:36;53.23;;;27.33;;
5539;SDS011;2792;52.452;9.752;2023-02-11T00:48:03;50.70;;;27.47;;
5539;SDS011;2792;52.452;9.752;2023-02-11T00:50:29;47.20;;;28.67;;
5539;SDS011;2792;52.452;9.752;2023-02-11T00:52:55;53.13;;;28.73;;
5539;SDS011;2792;52.452;9.752;2023-02-11T00:55:22;49.13;;;28.30;;
5539;SDS011;2792;52.452;9.752;2023-02-11T00:57:48;50.50;;;26.70;;
5539;SDS011;2792;52.452;9.752;2023-02-11T01:00:17;47.43;;;27.17;;
5539;SDS011;2792;52.452;9.752;2023-02-11T01:02:43;51.67;;;28.07;;
5539;SDS011;2792;52.452;9.752;2023-02-11T01:05:10;55.60;;;28.80;;
5539;SDS011;2792;52.452;9.752;2023-02-11T01:07:36;61.30;;;30.43;;
5539;SDS011;2792;52.452;9.752;2023-02-11T01:10:03;48.73;;;28.60;;
5539;SDS011;2792;52.452;9.752;2023-02-11T01:12:30;59.00;;;31.97;;
5539;SDS011;2792;52.452;9.752;2023-02-11T01:14:56;53.87;;;29.67;;
5539;SDS011;2792;52.452;9.752;2023-02-11T01:17:24;53.07;;;30.10;;
5539;SDS011;2792;52.452;9.752;2023-02-11T01:19:51;54.23;;;29.97;;
5539;SDS011;2792;52.452;9.752;2023-02-11T01:22:18;52.40;;;28.20;;
5539;SDS011;2792;52.452;9.752;2023-02-11T01:24:44;53.50;;;29.80;;
5539;SDS011;2792;52.452;9.752;2023-02-11T01:27:11;53.93;;;29.67;;
5539;SDS011;2792;52.452;9.752;2023-02-11T01:29:37;56.07;;;30.20;;
5539;SDS011;2792;52.452;9.752;2023-02-11T01:32:04;56.60;;;30.83;;
5539;SDS011;2792;52.452;9.752;2023-02-11T01:34:31;55.77;;;31.67;;
5539;SDS011;2792;52.452;9.752;2023-02-11T01:36:58;58.97;;;31.80;;
5539;SDS011;2792;52.452;9.752;2023-02-11T01:39:25;59.77;;;30.87;;
5539;SDS011;2792;52.452;9.752;2023-02-11T01:41:51;59.43;;;31.20;;
5539;SDS011;2792;52.452;9.752;2023-02-11T01:44:25;62.27;;;32.47;;
5539;SDS011;2792;52.452;9.752;2023-02-11T01:46:53;67.40;;;34.13;;
5539;SDS011;2792;52.452;9.752;2023-02-11T01:49:20;60.70;;;33.00;;
5539;SDS011;2792;52.452;9.752;2023-02-11T01:51:51;68.00;;;34.23;;
5539;SDS011;2792;52.452;9.752;2023-02-11T01:54:22;66.00;;;35.47;;
5539;SDS011;2792;52.452;9.752;2023-02-11T01:57:07;64.37;;;34.90;;
5539;SDS011;2792;52.452;9.752;2023-02-11T01:59:51;66.03;;;34.67;;
5539;SDS011;2792;52.452;9.752;2023-02-11T02:02:22;59.47;;;33.33;;
5539;SDS011;2792;52.452;9.752;2023-02-11T02:04:52;66.97;;;32.33;;
5539;SDS011;2792;52.452;9.752;2023-02-11T02:07:26;63.80;;;33.20;;
5539;SDS011;2792;52.452;9.752;2023-02-11T02:09:57;66.53;;;33.43;;
5539;SDS011;2792;52.452;9.752;2023-02-11T02:12:25;75.07;;;34.90;;
5539;SDS011;2792;52.452;9.752;2023-02-11T02:15:07;65.50;;;33.73;;
5539;SDS011;2792;52.452;9.752;2023-02-11T02:17:48;71.93;;;35.00;;
5539;SDS011;2792;52.452;9.752;2023-02-11T02:23:26;59.90;;;31.73;;
5539;SDS011;2792;52.452;9.752;2023-02-11T02:26:09;65.77;;;32.07;;
5539;SDS011;2792;52.452;9.752;2023-02-11T02:28:56;63.17;;;32.70;;
5539;SDS011;2792;52.452;9.752;2023-02-11T02:31:43;64.37;;;33.03;;
5539;SDS011;2792;52.452;9.752;2023-02-11T02:34:22;61.13;;;32.43;;
5539;SDS011;2792;52.452;9.752;2023-02-11T02:36:54;67.27;;;33.57;;
5539;SDS011;2792;52.452;9.752;2023-02-11T02:39:23;57.80;;;33.13;;
5539;SDS011;2792;52.452;9.752;2023-02-11T02:41:52;71.90;;;33.63;;
5539;SDS011;2792;52.452;9.752;2023-02-11T02:44:19;56.37;;;31.13;;
5539;SDS011;2792;52.452;9.752;2023-02-11T02:46:46;63.30;;;31.90;;
5539;SDS011;2792;52.452;9.752;2023-02-11T02:49:13;61.50;;;34.40;;
5539;SDS011;2792;52.452;9.752;2023-02-11T02:51:47;63.00;;;33.00;;
5539;SDS011;2792;52.452;9.752;2023-02-11T02:54:28;61.83;;;32.23;;
5539;SDS011;2792;52.452;9.752;2023-02-11T02:57:03;59.17;;;32.53;;
5539;SDS011;2792;52.452;9.752;2023-02-11T02:59:36;55.60;;;31.10;;
5539;SDS011;2792;52.452;9.752;2023-02-11T03:02:11;60.17;;;32.33;;
5539;SDS011;2792;52.452;9.752;2023-02-11T03:04:42;67.77;;;33.70;;
5539;SDS011;2792;52.452;9.752;2023-02-11T03:07:16;65.27;;;31.90;;
5539;SDS011;2792;52.452;9.752;2023-02-11T03:09:48;57.77;;;32.27;;
5539;SDS011;2792;52.452;9.752;2023-02-11T03:12:16;67.63;;;33.00;;
5539;SDS011;2792;52.452;9.752;2023-02-11T03:14:42;66.83;;;32.40;;
5539;SDS011;2792;52.452;9.752;2023-02-11T03:17:10;63.97;;;31.20;;
5539;SDS011;2792;52.452;9.752;2023-02-11T03:19:37;59.10;;;31.40;;
5539;SDS011;2792;52.452;9.752;2023-02-11T03:22:06;63.00;;;31.10;;
5539;SDS011;2792;52.452;9.752;2023-02-11T03:24:37;64.97;;;31.83;;
5539;SDS011;2792;52.452;9.752;2023-02-11T03:27:05;61.30;;;30.77;;
5539;SDS011;2792;52.452;9.752;2023-02-11T03:29:35;66.53;;;33.13;;
5539;SDS011;2792;52.452;9.752;2023-02-11T03:32:05;67.00;;;32.07;;
5539;SDS011;2792;52.452;9.752;2023-02-11T03:34:37;67.23;;;31.33;;
5539;SDS011;2792;52.452;9.752;2023-02-11T03:37:07;69.87;;;32.57;;
5539;SDS011;2792;52.452;9.752;2023-02-11T03:39:37;64.53;;;32.23;;
5539;SDS011;2792;52.452;9.752;2023-02-11T03:42:05;62.37;;;32.03;;
5539;SDS011;2792;52.452;9.752;2023-02-11T03:44:35;67.87;;;33.33;;
5539;SDS011;2792;52.452;9.752;2023-02-11T03:47:06;62.00;;;31.93;;
5539;SDS011;2792;52.452;9.752;2023-02-11T03:49:34;58.30;;;32.33;;
5539;SDS011;2792;52.452;9.752;2023-02-11T03:52:01;61.40;;;32.00;;
5539;SDS011;2792;52.452;9.752;2023-02-11T03:54:30;62.47;;;31.67;;
5539;SDS011;2792;52.452;9.752;2023-02-11T03:56:59;72.17;;;32.27;;
5539;SDS011;2792;52.452;9.752;2023-02-11T03:59:26;60.93;;;31.90;;
5539;SDS011;2792;52.452;9.752;2023-02-11T04:01:53;67.00;;;32.83;;
5539;SDS011;2792;52.452;9.752;2023-02-11T04:04:20;74.30;;;33.07;;
5539;SDS011;2792;52.452;9.752;2023-02-11T04:06:46;72.33;;;32.50;;
5539;SDS011;2792;52.452;9.752;2023-02-11T04:09:13;53.30;;;29.37;;
5539;SDS011;2792;52.452;9.752;2023-02-11T04:11:40;63.20;;;31.73;;
5539;SDS011;2792;52.452;9.752;2023-02-11T04:14:08;57.63;;;31.37;;
5539;SDS011;2792;52.452;9.752;2023-02-11T04:16:34;67.70;;;33.43;;
5539;SDS011;2792;52.452;9.752;2023-02-11T04:19:01;61.03;;;30.83;;
5539;SDS011;2792;52.452;9.752;2023-02-11T04:21:27;60.17;;;32.43;;
5539;SDS011;2792;52.452;9.752;2023-02-11T04:23:54;62.10;;;31.20;;
5539;SDS011;2792;52.452;9.752;2023-02-11T04:26:20;59.63;;;31.27;;
5539;SDS011;2792;52.452;9.752;2023-02-11T04:28:47;66.43;;;32.57;;
5539;SDS011;2792;52.452;9.752;2023-02-11T04:31:14;59.50;;;30.67;;
5539;SDS011;2792;52.452;9.752;2023-02-11T04:33:41;59.07;;;30.53;;
5539;SDS011;2792;52.452;9.752;2023-02-11T04:36:07;58.40;;;31.27;;
5539;SDS011;2792;52.452;9.752;2023-02-11T04:38:34;52.77;;;28.73;;
5539;SDS011;2792;52.452;9.752;2023-02-11T04:41:00;59.77;;;32.20;;
5539;SDS011;2792;52.452;9.752;2023-02-11T04:43:27;72.23;;;31.07;;
5539;SDS011;2792;52.452;9.752;2023-02-11T04:45:55;62.93;;;31.70;;
5539;SDS011;2792;52.452;9.752;2023-02-11T04:48:23;66.00;;;30.40;;
5539;SDS011;2792;52.452;9.752;2023-02-11T04:50:50;59.83;;;31.87;;
5539;SDS011;2792;52.452;9.752;2023-02-11T04:53:16;70.20;;;32.33;;
5539;SDS011;2792;52.452;9.752;2023-02-11T04:55:43;56.10;;;29.93;;
5539;SDS011;2792;52.452;9.752;2023-02-11T04:58:09;67.70;;;31.47;;
5539;SDS011;2792;52.452;9.752;2023-02-11T05:00:36;60.53;;;29.70;;
5539;SDS011;2792;52.452;9.752;2023-02-11T05:03:02;59.73;;;30.67;;
5539;SDS011;2792;52.452;9.752;2023-02-11T05:05:30;60.73;;;30.40;;
5539;SDS011;2792;52.452;9.752;2023-02-11T05:07:57;57.40;;;29.43;;
5539;SDS011;2792;52.452;9.752;2023-02-11T05:10:23;51.83;;;28.83;;
5539;SDS011;2792;52.452;9.752;2023-02-11T05:12:49;56.80;;;27.80;;
5539;SDS011;2792;52.452;9.752;2023-02-11T05:15:16;55.20;;;29.57;;
5539;SDS011;2792;52.452;9.752;2023-02-11T05:17:43;47.63;;;28.40;;
5539;SDS011;2792;52.452;9.752;2023-02-11T05:20:09;55.90;;;28.30;;
5539;SDS011;2792;52.452;9.752;2023-02-11T05:22:37;49.83;;;28.27;;
5539;SDS011;2792;52.452;9.752;2023-02-11T05:25:04;52.70;;;29.50;;
5539;SDS011;2792;52.452;9.752;2023-02-11T05:27:31;53.57;;;28.90;;
5539;SDS011;2792;52.452;9.752;2023-02-11T05:29:57;51.80;;;29.07;;
5539;SDS011;2792;52.452;9.752;2023-02-11T05:32:24;56.20;;;27.90;;
5539;SDS011;2792;52.452;9.752;2023-02-11T05:34:50;52.83;;;29.20;;
5539;SDS011;2792;52.452;9.752;2023-02-11T05:37:17;54.20;;;29.57;;
5539;SDS011;2792;52.452;9.752;2023-02-11T05:39:45;54.93;;;28.57;;
5539;SDS011;2792;52.452;9.752;2023-02-11T05:42:12;57.13;;;28.97;;
5539;SDS011;2792;52.452;9.752;2023-02-11T05:44:38;61.27;;;27.90;;
5539;SDS011;2792;52.452;9.752;2023-02-11T05:47:05;62.87;;;31.80;;
5539;SDS011;2792;52.452;9.752;2023-02-11T05:49:32;49.23;;;27.57;;
5539;SDS011;2792;52.452;9.752;2023-02-11T05:51:59;47.47;;;28.13;;
5539;SDS011;2792;52.452;9.752;2023-02-11T05:54:26;49.87;;;28.07;;
5539;SDS011;2792;52.452;9.752;2023-02-11T05:56:53;56.60;;;29.07;;
5539;SDS011;2792;52.452;9.752;2023-02-11T05:59:20;52.90;;;29.97;;
5539;SDS011;2792;52.452;9.752;2023-02-11T06:01:46;54.50;;;27.80;;
5539;SDS011;2792;52.452;9.752;2023-02-11T06:04:13;53.97;;;27.83;;
5539;SDS011;2792;52.452;9.752;2023-02-11T06:06:39;52.73;;;26.53;;
5539;SDS011;2792;52.452;9.752;2023-02-11T06:09:06;51.43;;;27.17;;
5539;SDS011;2792;52.452;9.752;2023-02-11T06:11:33;47.07;;;28.17;;
5539;SDS011;2792;52.452;9.752;2023-02-11T06:14:01;54.40;;;28.43;;
5539;SDS011;2792;52.452;9.752;2023-02-11T06:16:28;47.13;;;27.50;;
5539;SDS011;2792;52.452;9.752;2023-02-11T06:18:54;47.87;;;28.60;;
5539;SDS011;2792;52.452;9.752;2023-02-11T06:21:21;43.73;;;27.03;;
5539;SDS011;2792;52.452;9.752;2023-02-11T06:23:47;49.00;;;25.77;;
5539;SDS011;2792;52.452;9.752;2023-02-11T06:26:15;49.80;;;27.03;;
5539;SDS011;2792;52.452;9.752;2023-02-11T06:28:43;46.43;;;26.83;;
5539;SDS011;2792;52.452;9.752;2023-02-11T06:31:11;53.63;;;27.50;;
5539;SDS011;2792;52.452;9.752;2023-02-11T06:33:38;46.87;;;28.40;;
5539;SDS011;2792;52.452;9.752;2023-02-11T06:36:08;48.67;;;27.83;;
5539;SDS011;2792;52.452;9.752;2023-02-11T06:38:38;52.03;;;28.37;;
5539;SDS011;2792;52.452;9.752;2023-02-11T06:41:04;45.03;;;26.57;;
5539;SDS011;2792;52.452;9.752;2023-02-11T06:43:31;49.63;;;27.93;;
5539;SDS011;2792;52.452;9.752;2023-02-11T06:45:57;58.00;;;28.80;;
5539;SDS011;2792;52.452;9.752;2023-02-11T06:48:25;46.53;;;27.00;;
5539;SDS011;2792;52.452;9.752;2023-02-11T06:50:51;45.50;;;26.30;;
5539;SDS011;2792;52.452;9.752;2023-02-11T06:53:18;47.40;;;26.40;;
5539;SDS011;2792;52.452;9.752;2023-02-11T06:55:45;45.17;;;25.10;;
5539;SDS011;2792;52.452;9.752;2023-02-11T06:58:11;51.37;;;26.27;;
5539;SDS011;2792;52.452;9.752;2023-02-11T07:00:38;44.97;;;26.60;;
5539;SDS011;2792;52.452;9.752;2023-02-11T07:03:04;42.23;;;25.93;;
5539;SDS011;2792;52.452;9.752;2023-02-11T07:05:32;54.40;;;27.40;;
5539;SDS011;2792;52.452;9.752;2023-02-11T07:07:59;51.33;;;28.47;;
5539;SDS011;2792;52.452;9.752;2023-02-11T07:10:25;46.07;;;27.43;;
5539;SDS011;2792;52.452;9.752;2023-02-11T07:12:52;52.33;;;27.50;;
5539;SDS011;2792;52.452;9.752;2023-02-11T07:15:18;42.87;;;26.30;;
5539;SDS011;2792;52.452;9.752;2023-02-11T07:17:45;58.67;;;28.37;;
5539;SDS011;2792;52.452;9.752;2023-02-11T07:20:11;43.27;;;25.60;;
5539;SDS011;2792;52.452;9.752;2023-02-11T07:22:41;44.37;;;25.40;;
5539;SDS011;2792;52.452;9.752;2023-02-11T07:25:07;44.87;;;27.13;;
5539;SDS011;2792;52.452;9.752;2023-02-11T07:27:34;49.57;;;27.00;;
5539;SDS011;2792;52.452;9.752;2023-02-11T07:30:00;47.27;;;28.70;;
5539;SDS011;2792;52.452;9.752;2023-02-11T07:32:27;44.70;;;26.23;;
5539;SDS011;2792;52.452;9.752;2023-02-11T07:34:53;51.27;;;27.13;;
5539;SDS011;2792;52.452;9.752;2023-02-11T07:37:20;44.50;;;26.47;;
5539;SDS011;2792;52.452;9.752;2023-02-11T07:39:48;48.03;;;24.40;;
5539;SDS011;2792;52.452;9.752;2023-02-11T07:42:14;46.13;;;25.77;;
5539;SDS011;2792;52.452;9.752;2023-02-11T07:44:41;46.17;;;26.10;;
5539;SDS011;2792;52.452;9.752;2023-02-11T07:47:07;48.60;;;26.13;;
5539;SDS011;2792;52.452;9.752;2023-02-11T07:49:34;48.40;;;27.13;;
5539;SDS011;2792;52.452;9.752;2023-02-11T07:52:00;44.40;;;28.13;;
5539;SDS011;2792;52.452;9.752;2023-02-11T07:54:27;45.90;;;26.30;;
5539;SDS011;2792;52.452;9.752;2023-02-11T07:56:55;53.43;;;27.10;;
5539;SDS011;2792;52.452;9.752;2023-02-11T07:59:21;47.67;;;26.77;;
5539;SDS011;2792;52.452;9.752;2023-02-11T08:01:48;46.33;;;26.00;;
5539;SDS011;2792;52.452;9.752;2023-02-11T08:04:15;47.10;;;25.97;;
5539;SDS011;2792;52.452;9.752;2023-02-11T08:06:42;53.23;;;26.80;;
5539;SDS011;2792;52.452;9.752;2023-02-11T08:09:10;48.30;;;26.20;;
5539;SDS011;2792;52.452;9.752;2023-02-11T08:11:40;46.90;;;25.90;;
5539;SDS011;2792;52.452;9.752;2023-02-11T08:14:08;52.30;;;27.73;;
5539;SDS011;2792;52.452;9.752;2023-02-11T08:16:35;46.40;;;26.70;;
5539;SDS011;2792;52.452;9.752;2023-02-11T08:19:04;49.27;;;25.40;;
5539;SDS011;2792;52.452;9.752;2023-02-11T08:21:32;44.17;;;25.33;;
5539;SDS011;2792;52.452;9.752;2023-02-11T08:23:59;46.17;;;26.00;;
5539;SDS011;2792;52.452;9.752;2023-02-11T08:26:27;52.13;;;25.83;;
5539;SDS011;2792;52.452;9.752;2023-02-11T08:28:56;46.10;;;24.97;;
5539;SDS011;2792;52.452;9.752;2023-02-11T08:31:25;54.50;;;25.40;;
5539;SDS011;2792;52.452;9.752;2023-02-11T08:33:53;42.13;;;24.80;;
5539;SDS011;2792;52.452;9.752;2023-02-11T08:36:23;65.93;;;26.80;;
5539;SDS011;2792;52.452;9.752;2023-02-11T08:38:50;44.67;;;25.93;;
5539;SDS011;2792;52.452;9.752;2023-02-11T08:41:19;46.33;;;24.53;;
5539;SDS011;2792;52.452;9.752;2023-02-11T08:43:45;43.03;;;24.63;;
5539;SDS011;2792;52.452;9.752;2023-02-11T08:46:14;46.53;;;23.17;;
5539;SDS011;2792;52.452;9.752;2023-02-11T08:48:43;51.10;;;25.30;;
5539;SDS011;2792;52.452;9.752;2023-02-11T08:51:12;40.40;;;24.50;;
5539;SDS011;2792;52.452;9.752;2023-02-11T08:53:40;40.23;;;24.13;;
5539;SDS011;2792;52.452;9.752;2023-02-11T08:56:07;37.90;;;23.20;;
5539;SDS011;2792;52.452;9.752;2023-02-11T08:58:34;41.93;;;24.50;;
5539;SDS011;2792;52.452;9.752;2023-02-11T09:01:01;43.37;;;23.30;;
5539;SDS011;2792;52.452;9.752;2023-02-11T09:03:27;47.83;;;23.80;;
5539;SDS011;2792;52.452;9.752;2023-02-11T09:05:55;42.50;;;23.43;;
5539;SDS011;2792;52.452;9.752;2023-02-11T09:08:22;40.00;;;23.80;;
5539;SDS011;2792;52.452;9.752;2023-02-11T09:10:48;40.53;;;23.87;;
5539;SDS011;2792;52.452;9.752;2023-02-11T09:13:14;37.20;;;23.27;;
5539;SDS011;2792;52.452;9.752;2023-02-11T09:15:43;42.10;;;24.10;;
5539;SDS011;2792;52.452;9.752;2023-02-11T09:18:10;47.20;;;23.40;;
5539;SDS011;2792;52.452;9.752;2023-02-11T09:20:36;37.10;;;22.53;;
5539;SDS011;2792;52.452;9.752;2023-02-11T09:23:04;43.87;;;22.63;;
5539;SDS011;2792;52.452;9.752;2023-02-11T09:25:31;41.20;;;22.80;;
5539;SDS011;2792;52.452;9.752;2023-02-11T09:27:57;48.97;;;24.70;;
5539;SDS011;2792;52.452;9.752;2023-02-11T09:30:24;39.37;;;23.23;;
5539;SDS011;2792;52.452;9.752;2023-02-11T09:32:50;42.93;;;24.20;;
5539;SDS011;2792;52.452;9.752;2023-02-11T09:35:17;43.40;;;24.23;;
5539;SDS011;2792;52.452;9.752;2023-02-11T09:37:43;40.83;;;22.97;;
5539;SDS011;2792;52.452;9.752;2023-02-11T09:40:11;38.57;;;22.93;;
5539;SDS011;2792;52.452;9.752;2023-02-11T09:42:41;48.80;;;23.40;;
5539;SDS011;2792;52.452;9.752;2023-02-11T09:45:12;46.83;;;23.53;;
5539;SDS011;2792;52.452;9.752;2023-02-11T09:47:44;42.53;;;22.73;;
5539;SDS011;2792;52.452;9.752;2023-02-11T09:50:14;37.80;;;22.43;;
5539;SDS011;2792;52.452;9.752;2023-02-11T09:52:44;39.37;;;23.00;;
5539;SDS011;2792;52.452;9.752;2023-02-11T09:55:16;42.60;;;24.47;;
5539;SDS011;2792;52.452;9.752;2023-02-11T09:57:45;41.63;;;22.10;;
5539;SDS011;2792;52.452;9.752;2023-02-11T10:00:17;40.37;;;22.37;;
5539;SDS011;2792;52.452;9.752;2023-02-11T10:03:08;37.13;;;21.10;;
5539;SDS011;2792;52.452;9.752;2023-02-11T10:05:47;44.87;;;23.00;;
5539;SDS011;2792;52.452;9.752;2023-02-11T10:08:26;34.97;;;21.53;;
5539;SDS011;2792;52.452;9.752;2023-02-11T10:10:57;39.63;;;22.07;;
5539;SDS011;2792;52.452;9.752;2023-02-11T10:16:17;38.03;;;22.70;;
5539;SDS011;2792;52.452;9.752;2023-02-11T10:18:55;37.27;;;20.73;;
5539;SDS011;2792;52.452;9.752;2023-02-11T10:21:31;36.97;;;20.70;;
5539;SDS011;2792;52.452;9.752;2023-02-11T10:24:11;43.03;;;21.87;;
5539;SDS011;2792;52.452;9.752;2023-02-11T10:26:39;36.93;;;22.60;;
5539;SDS011;2792;52.452;9.752;2023-02-11T10:29:10;34.93;;;21.80;;
5539;SDS011;2792;52.452;9.752;2023-02-11T10:31:43;40.23;;;21.40;;
5539;SDS011;2792;52.452;9.752;2023-02-11T10:34:11;38.57;;;22.63;;
5539;SDS011;2792;52.452;9.752;2023-02-11T10:36:39;38.67;;;21.43;;
5539;SDS011;2792;52.452;9.752;2023-02-11T10:39:09;43.30;;;22.20;;
5539;SDS011;2792;52.452;9.752;2023-02-11T10:41:37;43.50;;;24.00;;
5539;SDS011;2792;52.452;9.752;2023-02-11T10:44:12;48.83;;;24.83;;
5539;SDS011;2792;52.452;9.752;2023-02-11T10:46:47;37.00;;;23.17;;
5539;SDS011;2792;52.452;9.752;2023-02-11T10:49:18;49.43;;;24.87;;
5539;SDS011;2792;52.452;9.752;2023-02-11T10:52:14;39.07;;;23.47;;
5539;SDS011;2792;52.452;9.752;2023-02-11T10:54:57;39.33;;;24.20;;
5539;SDS011;2792;52.452;9.752;2023-02-11T10:57:29;45.83;;;23.57;;
5539;SDS011;2792;52.452;9.752;2023-02-11T10:59:58;49.17;;;24.37;;
5539;SDS011;2792;52.452;9.752;2023-02-11T11:02:27;38.90;;;24.63;;
5539;SDS011;2792;52.452;9.752;2023-02-11T11:04:58;40.77;;;25.17;;
5539;SDS011;2792;52.452;9.752;2023-02-11T11:07:27;42.87;;;24.03;;
5539;SDS011;2792;52.452;9.752;2023-02-11T11:09:55;44.53;;;23.80;;
5539;SDS011;2792;52.452;9.752;2023-02-11T11:12:30;46.50;;;24.23;;
5539;SDS011;2792;52.452;9.752;2023-02-11T11:15:00;43.90;;;23.80;;
5539;SDS011;2792;52.452;9.752;2023-02-11T11:17:28;42.80;;;24.60;;
5539;SDS011;2792;52.452;9.752;2023-02-11T11:23:06;44.60;;;24.50;;
5539;SDS011;2792;52.452;9.752;2023-02-11T11:25:36;45.93;;;25.00;;
5539;SDS011;2792;52.452;9.752;2023-02-11T11:28:15;44.93;;;26.07;;
5539;SDS011;2792;52.452;9.752;2023-02-11T11:30:44;36.37;;;22.40;;
5539;SDS011;2792;52.452;9.752;2023-02-11T11:33:14;44.83;;;22.43;;
5539;SDS011;2792;52.452;9.752;2023-02-11T11:35:49;43.13;;;23.87;;
5539;SDS011;2792;52.452;9.752;2023-02-11T11:38:21;45.07;;;23.90;;
5539;SDS011;2792;52.452;9.752;2023-02-11T11:40:49;39.63;;;22.57;;
5539;SDS011;2792;52.452;9.752;2023-02-11T11:43:42;46.30;;;24.13;;
5539;SDS011;2792;52.452;9.752;2023-02-11T11:46:21;41.57;;;25.17;;
5539;SDS011;2792;52.452;9.752;2023-02-11T11:48:49;42.33;;;24.27;;
5539;SDS011;2792;52.452;9.752;2023-02-11T11:51:16;46.23;;;24.70;;
5539;SDS011;2792;52.452;9.752;2023-02-11T11:53:44;46.30;;;23.47;;
5539;SDS011;2792;52.452;9.752;2023-02-11T11:56:16;42.53;;;24.30;;
5539;SDS011;2792;52.452;9.752;2023-02-11T11:58:45;44.13;;;24.60;;
5539;SDS011;2792;52.452;9.752;2023-02-11T12:01:14;42.10;;;22.60;;
5539;SDS011;2792;52.452;9.752;2023-02-11T12:06:47;39.87;;;22.93;;
5539;SDS011;2792;52.452;9.752;2023-02-11T12:09:24;38.53;;;22.07;;
5539;SDS011;2792;52.452;9.752;2023-02-11T12:12:00;36.27;;;21.50;;
5539;SDS011;2792;52.452;9.752;2023-02-11T12:14:36;39.40;;;20.87;;
5539;SDS011;2792;52.452;9.752;2023-02-11T12:17:10;38.83;;;21.57;;
5539;SDS011;2792;52.452;9.752;2023-02-11T12:19:46;34.70;;;20.37;;
5539;SDS011;2792;52.452;9.752;2023-02-11T12:22:24;35.70;;;22.10;;
5539;SDS011;2792;52.452;9.752;2023-02-11T12:24:59;34.17;;;20.53;;
5539;SDS011;2792;52.452;9.752;2023-02-11T12:27:38;35.40;;;20.73;;
5539;SDS011;2792;52.452;9.752;2023-02-11T12:30:15;39.37;;;19.37;;
5539;SDS011;2792;52.452;9.752;2023-02-11T12:32:49;39.07;;;20.70;;
5539;SDS011;2792;52.452;9.752;2023-02-11T12:38:21;35.57;;;20.87;;
5539;SDS011;2792;52.452;9.752;2023-02-11T12:40:57;31.57;;;19.03;;
5539;SDS011;2792;52.452;9.752;2023-02-11T12:43:33;34.47;;;19.97;;
5539;SDS011;2792;52.452;9.752;2023-02-11T12:49:02;30.40;;;18.93;;
5539;SDS011;2792;52.452;9.752;2023-02-11T12:51:39;29.17;;;19.33;;
5539;SDS011;2792;52.452;9.752;2023-02-11T12:54:19;28.17;;;19.20;;
5539;SDS011;2792;52.452;9.752;2023-02-11T12:56:51;31.37;;;20.30;;
5539;SDS011;2792;52.452;9.752;2023-02-11T12:59:27;37.20;;;21.33;;
5539;SDS011;2792;52.452;9.752;2023-02-11T13:02:00;30.07;;;19.43;;
5539;SDS011;2792;52.452;9.752;2023-02-11T13:04:32;32.30;;;20.17;;
5539;SDS011;2792;52.452;9.752;2023-02-11T13:07:01;34.93;;;18.90;;
5539;SDS011;2792;52.452;9.752;2023-02-11T13:09:31;33.93;;;19.40;;
5539;SDS011;2792;52.452;9.752;2023-02-11T13:12:01;36.43;;;21.10;;
5539;SDS011;2792;52.452;9.752;2023-02-11T13:14:53;37.63;;;20.30;;
5539;SDS011;2792;52.452;9.752;2023-02-11T13:17:24;35.33;;;20.37;;
5539;SDS011;2792;52.452;9.752;2023-02-11T13:19:58;31.80;;;19.13;;
5539;SDS011;2792;52.452;9.752;2023-02-11T13:22:29;38.57;;;19.33;;
5539;SDS011;2792;52.452;9.752;2023-02-11T13:25:00;33.67;;;19.23;;
5539;SDS011;2792;52.452;9.752;2023-02-11T13:27:31;32.33;;;21.27;;
5539;SDS011;2792;52.452;9.752;2023-02-11T13:30:24;37.47;;;19.53;;
5539;SDS011;2792;52.452;9.752;2023-02-11T13:33:04;33.50;;;19.50;;
5539;SDS011;2792;52.452;9.752;2023-02-11T13:35:42;34.83;;;19.03;;
5539;SDS011;2792;52.452;9.752;2023-02-11T13:38:16;35.70;;;20.10;;
5539;SDS011;2792;52.452;9.752;2023-02-11T13:40:49;38.37;;;21.87;;
5539;SDS011;2792;52.452;9.752;2023-02-11T13:43:24;37.67;;;20.73;;
5539;SDS011;2792;52.452;9.752;2023-02-11T13:45:56;32.37;;;20.90;;
5539;SDS011;2792;52.452;9.752;2023-02-11T13:48:23;41.27;;;21.13;;
5539;SDS011;2792;52.452;9.752;2023-02-11T13:50:52;34.77;;;20.20;;
5539;SDS011;2792;52.452;9.752;2023-02-11T13:53:19;39.23;;;22.07;;
5539;SDS011;2792;52.452;9.752;2023-02-11T13:55:47;37.50;;;20.53;;
5539;SDS011;2792;52.452;9.752;2023-02-11T13:58:15;33.60;;;20.40;;
5539;SDS011;2792;52.452;9.752;2023-02-11T14:00:45;38.57;;;19.63;;
5539;SDS011;2792;52.452;9.752;2023-02-11T14:03:22;29.57;;;18.97;;
5539;SDS011;2792;52.452;9.752;2023-02-11T14:06:15;37.17;;;19.00;;
5539;SDS011;2792;52.452;9.752;2023-02-11T14:12:22;32.13;;;19.80;;
5539;SDS011;2792;52.452;9.752;2023-02-11T14:15:17;33.67;;;19.50;;
5539;SDS011;2792;52.452;9.752;2023-02-11T14:17:45;35.37;;;20.00;;
5539;SDS011;2792;52.452;9.752;2023-02-11T14:23:01;33.93;;;20.10;;
5539;SDS011;2792;52.452;9.752;2023-02-11T14:25:28;35.20;;;20.03;;
5539;SDS011;2792;52.452;9.752;2023-02-11T14:27:56;37.70;;;19.80;;
5539;SDS011;2792;52.452;9.752;2023-02-11T14:30:28;35.97;;;20.57;;
5539;SDS011;2792;52.452;9.752;2023-02-11T14:33:03;37.07;;;18.30;;
5539;SDS011;2792;52.452;9.752;2023-02-11T14:35:46;37.93;;;21.13;;
5539;SDS011;2792;52.452;9.752;2023-02-11T14:38:20;37.43;;;20.03;;
5539;SDS011;2792;52.452;9.752;2023-02-11T14:40:52;37.00;;;21.30;;
5539;SDS011;2792;52.452;9.752;2023-02-11T14:43:23;43.90;;;22.03;;
5539;SDS011;2792;52.452;9.752;2023-02-11T14:45:52;41.80;;;20.57;;
5539;SDS011;2792;52.452;9.752;2023-02-11T14:48:20;38.17;;;21.60;;
5539;SDS011;2792;52.452;9.752;2023-02-11T14:50:52;34.10;;;20.30;;
5539;SDS011;2792;52.452;9.752;2023-02-11T14:53:20;35.70;;;20.33;;
5539;SDS011;2792;52.452;9.752;2023-02-11T14:55:49;41.97;;;20.87;;
5539;SDS011;2792;52.452;9.752;2023-02-11T14:58:17;34.13;;;18.63;;
5539;SDS011;2792;52.452;9.752;2023-02-11T15:00:48;40.67;;;20.30;;
5539;SDS011;2792;52.452;9.752;2023-02-11T15:03:23;45.67;;;21.90;;
5539;SDS011;2792;52.452;9.752;2023-02-11T15:05:56;38.53;;;20.30;;
5539;SDS011;2792;52.452;9.752;2023-02-11T15:08:24;36.70;;;20.40;;
5539;SDS011;2792;52.452;9.752;2023-02-11T15:10:51;36.70;;;21.17;;
5539;SDS011;2792;52.452;9.752;2023-02-11T15:13:19;39.40;;;20.20;;
5539;SDS011;2792;52.452;9.752;2023-02-11T15:15:47;32.60;;;21.17;;
5539;SDS011;2792;52.452;9.752;2023-02-11T15:18:16;45.80;;;22.90;;
5539;SDS011;2792;52.452;9.752;2023-02-11T15:20:46;42.70;;;21.60;;
5539;SDS011;2792;52.452;9.752;2023-02-11T15:23:16;44.07;;;22.83;;
5539;SDS011;2792;52.452;9.752;2023-02-11T15:25:45;39.57;;;21.03;;
5539;SDS011;2792;52.452;9.752;2023-02-11T15:28:18;41.63;;;23.80;;